sensor_id;sensor_type;location;lat;lon;timestamp;temperature;humidity
66422;DHT22;53228;51.380;0.098;2024-03-22T00:01:55;11.30;99.90
66422;DHT22;53228;51.380;0.098;2024-03-22T00:04:22;11.00;99.90
66422;DHT22;53228;51.380;0.098;2024-03-22T00:06:50;11.00;99.90
66422;DHT22;53228;51.380;0.098;2024-03-22T00:09:17;11.00;99.90
66422;DHT22;53228;51.380;0.098;2024-03-22T00:11:44;11.00;99.90
66422;DHT22;53228;51.380;0.098;2024-03-22T00:14:11;11.00;99.90
66422;DHT22;53228;51.380;0.098;2024-03-22T00:16:38;11.00;99.90
66422;DHT22;53228;51.380;0.098;2024-03-22T00:19:05;11.00;99.90
66422;DHT22;53228;51.380;0.098;2024-03-22T00:21:32;11.00;99.90
66422;DHT22;53228;51.380;0.098;2024-03-22T00:23:58;11.00;99.90
66422;DHT22;53228;51.380;0.098;2024-03-22T00:26:25;11.00;99.90
66422;DHT22;53228;51.380;0.098;2024-03-22T00:28:52;11.00;99.90
66422;DHT22;53228;51.380;0.098;2024-03-22T00:31:18;11.00;99.90
66422;DHT22;53228;51.380;0.098;2024-03-22T00:33:45;11.00;99.90
66422;DHT22;53228;51.380;0.098;2024-03-22T00:36:12;10.80;99.90
66422;DHT22;53228;51.380;0.098;2024-03-22T00:38:38;10.80;99.90
66422;DHT22;53228;51.380;0.098;2024-03-22T00:41:05;11.00;99.90
66422;DHT22;53228;51.380;0.098;2024-03-22T00:43:32;11.00;99.90
66422;DHT22;53228;51.380;0.098;2024-03-22T00:45:59;11.00;99.90
66422;DHT22;53228;51.380;0.098;2024-03-22T00:48:26;11.00;99.90
66422;DHT22;53228;51.380;0.098;2024-03-22T00:50:53;11.00;99.90
66422;DHT22;53228;51.380;0.098;2024-03-22T00:53:20;11.00;99.90
66422;DHT22;53228;51.380;0.098;2024-03-22T00:55:47;11.00;99.90
66422;DHT22;53228;51.380;0.098;2024-03-22T00:58:18;11.00;99.90
66422;DHT22;53228;51.380;0.098;2024-03-22T01:00:46;10.50;99.90
66422;DHT22;53228;51.380;0.098;2024-03-22T01:03:13;11.00;99.90
66422;DHT22;53228;51.380;0.098;2024-03-22T01:05:39;10.30;99.90
66422;DHT22;53228;51.380;0.098;2024-03-22T01:08:08;10.90;99.90
66422;DHT22;53228;51.380;0.098;2024-03-22T01:10:35;11.30;99.90
66422;DHT22;53228;51.380;0.098;2024-03-22T01:13:01;11.00;99.90
66422;DHT22;53228;51.380;0.098;2024-03-22T01:15:28;10.90;99.90
66422;DHT22;53228;51.380;0.098;2024-03-22T01:17:55;10.90;99.90
66422;DHT22;53228;51.380;0.098;2024-03-22T01:20:21;10.50;99.90
66422;DHT22;53228;51.380;0.098;2024-03-22T01:22:48;10.90;99.90
66422;DHT22;53228;51.380;0.098;2024-03-22T01:25:15;10.90;99.90
66422;DHT22;53228;51.380;0.098;2024-03-22T01:27:42;10.80;99.90
66422;DHT22;53228;51.380;0.098;2024-03-22T01:30:09;10.80;99.90
66422;DHT22;53228;51.380;0.098;2024-03-22T01:32:36;10.50;99.90
66422;DHT22;53228;51.380;0.098;2024-03-22T01:35:03;10.70;99.90
66422;DHT22;53228;51.380;0.098;2024-03-22T01:37:30;10.60;99.90
66422;DHT22;53228;51.380;0.098;2024-03-22T01:39:57;10.60;99.90
66422;DHT22;53228;51.380;0.098;2024-03-22T01:42:24;10.50;99.90
66422;DHT22;53228;51.380;0.098;2024-03-22T01:44:51;10.40;99.90
66422;DHT22;53228;51.380;0.098;2024-03-22T01:47:17;11.00;99.90
66422;DHT22;53228;51.380;0.098;2024-03-22T01:49:44;10.30;99.90
66422;DHT22;53228;51.380;0.098;2024-03-22T01:52:11;10.30;99.90
66422;DHT22;53228;51.380;0.098;2024-03-22T01:54:37;10.20;99.90
66422;DHT22;53228;51.380;0.098;2024-03-22T01:57:04;10.60;99.90
66422;DHT22;53228;51.380;0.098;2024-03-22T01:59:32;10.10;99.90
66422;DHT22;53228;51.380;0.098;2024-03-22T02:02:00;10.00;99.90
66422;DHT22;53228;51.380;0.098;2024-03-22T02:04:26;10.00;99.90
66422;DHT22;53228;51.380;0.098;2024-03-22T02:06:53;10.00;99.90
66422;DHT22;53228;51.380;0.098;2024-03-22T02:09:20;9.90;99.90
66422;DHT22;53228;51.380;0.098;2024-03-22T02:11:48;9.90;99.90
66422;DHT22;53228;51.380;0.098;2024-03-22T02:14:15;9.80;99.90
66422;DHT22;53228;51.380;0.098;2024-03-22T02:16:41;9.80;99.90
66422;DHT22;53228;51.380;0.098;2024-03-22T02:19:08;9.80;99.90
66422;DHT22;53228;51.380;0.098;2024-03-22T02:21:35;9.80;99.90
66422;DHT22;53228;51.380;0.098;2024-03-22T02:24:02;10.90;99.90
66422;DHT22;53228;51.380;0.098;2024-03-22T02:26:28;9.80;99.90
66422;DHT22;53228;51.380;0.098;2024-03-22T02:28:55;9.70;99.90
66422;DHT22;53228;51.380;0.098;2024-03-22T02:31:22;9.70;99.90
66422;DHT22;53228;51.380;0.098;2024-03-22T02:33:49;9.70;99.90
66422;DHT22;53228;51.380;0.098;2024-03-22T02:36:15;9.60;99.90
66422;DHT22;53228;51.380;0.098;2024-03-22T02:38:42;9.30;99.90
66422;DHT22;53228;51.380;0.098;2024-03-22T02:41:08;9.50;99.90
66422;DHT22;53228;51.380;0.098;2024-03-22T02:43:35;9.50;99.90
66422;DHT22;53228;51.380;0.098;2024-03-22T02:46:02;9.50;99.90
66422;DHT22;53228;51.380;0.098;2024-03-22T02:48:29;9.40;99.90
66422;DHT22;53228;51.380;0.098;2024-03-22T02:50:56;9.40;99.90
66422;DHT22;53228;51.380;0.098;2024-03-22T02:53:23;9.30;99.90
66422;DHT22;53228;51.380;0.098;2024-03-22T02:55:49;9.30;99.90
66422;DHT22;53228;51.380;0.098;2024-03-22T02:58:19;9.30;99.90
66422;DHT22;53228;51.380;0.098;2024-03-22T03:00:46;9.30;99.90
66422;DHT22;53228;51.380;0.098;2024-03-22T03:03:13;9.30;99.90
66422;DHT22;53228;51.380;0.098;2024-03-22T03:05:41;9.20;99.90
66422;DHT22;53228;51.380;0.098;2024-03-22T03:08:08;9.20;99.90
66422;DHT22;53228;51.380;0.098;2024-03-22T03:10:34;9.20;99.90
66422;DHT22;53228;51.380;0.098;2024-03-22T03:13:01;9.20;99.90
66422;DHT22;53228;51.380;0.098;2024-03-22T03:15:29;9.20;99.90
66422;DHT22;53228;51.380;0.098;2024-03-22T03:17:56;9.20;99.90
66422;DHT22;53228;51.380;0.098;2024-03-22T03:20:22;9.30;99.90
66422;DHT22;53228;51.380;0.098;2024-03-22T03:22:49;9.10;99.90
66422;DHT22;53228;51.380;0.098;2024-03-22T03:25:15;9.10;99.90
66422;DHT22;53228;51.380;0.098;2024-03-22T03:27:42;9.10;99.90
66422;DHT22;53228;51.380;0.098;2024-03-22T03:30:09;9.10;99.90
66422;DHT22;53228;51.380;0.098;2024-03-22T03:32:36;9.10;99.90
66422;DHT22;53228;51.380;0.098;2024-03-22T03:35:03;9.10;99.90
66422;DHT22;53228;51.380;0.098;2024-03-22T03:37:31;9.10;99.90
66422;DHT22;53228;51.380;0.098;2024-03-22T03:39:57;8.60;99.90
66422;DHT22;53228;51.380;0.098;2024-03-22T03:42:24;9.10;99.90
66422;DHT22;53228;51.380;0.098;2024-03-22T03:44:51;9.10;99.90
66422;DHT22;53228;51.380;0.098;2024-03-22T03:47:17;9.90;99.90
66422;DHT22;53228;51.380;0.098;2024-03-22T03:49:47;9.00;99.90
66422;DHT22;53228;51.380;0.098;2024-03-22T03:52:14;9.00;99.90
66422;DHT22;53228;51.380;0.098;2024-03-22T03:54:41;9.00;99.90
66422;DHT22;53228;51.380;0.098;2024-03-22T03:57:07;9.00;99.90
66422;DHT22;53228;51.380;0.098;2024-03-22T03:59:34;9.00;99.90
66422;DHT22;53228;51.380;0.098;2024-03-22T04:02:00;8.90;99.90
66422;DHT22;53228;51.380;0.098;2024-03-22T04:04:27;8.90;99.90
66422;DHT22;53228;51.380;0.098;2024-03-22T04:06:54;8.50;99.90
66422;DHT22;53228;51.380;0.098;2024-03-22T04:09:20;8.80;99.90
66422;DHT22;53228;51.380;0.098;2024-03-22T04:11:47;8.80;99.90
66422;DHT22;53228;51.380;0.098;2024-03-22T04:14:14;8.80;99.90
66422;DHT22;53228;51.380;0.098;2024-03-22T04:16:40;8.80;99.90
66422;DHT22;53228;51.380;0.098;2024-03-22T04:19:07;8.90;99.90
66422;DHT22;53228;51.380;0.098;2024-03-22T04:21:34;8.80;99.90
66422;DHT22;53228;51.380;0.098;2024-03-22T04:24:00;8.80;99.90
66422;DHT22;53228;51.380;0.098;2024-03-22T04:26:28;8.80;99.90
66422;DHT22;53228;51.380;0.098;2024-03-22T04:28:54;8.80;99.90
66422;DHT22;53228;51.380;0.098;2024-03-22T04:31:21;8.80;99.90
66422;DHT22;53228;51.380;0.098;2024-03-22T04:33:48;8.80;99.90
66422;DHT22;53228;51.380;0.098;2024-03-22T04:36:15;9.30;99.90
66422;DHT22;53228;51.380;0.098;2024-03-22T04:38:42;8.80;99.90
66422;DHT22;53228;51.380;0.098;2024-03-22T04:41:09;8.80;99.90
66422;DHT22;53228;51.380;0.098;2024-03-22T04:43:35;8.80;99.90
66422;DHT22;53228;51.380;0.098;2024-03-22T04:46:02;9.20;99.90
66422;DHT22;53228;51.380;0.098;2024-03-22T04:48:29;8.90;99.90
66422;DHT22;53228;51.380;0.098;2024-03-22T04:50:55;9.00;99.90
66422;DHT22;53228;51.380;0.098;2024-03-22T04:53:22;8.80;99.90
66422;DHT22;53228;51.380;0.098;2024-03-22T04:55:50;8.90;99.90
66422;DHT22;53228;51.380;0.098;2024-03-22T04:58:18;8.90;99.90
66422;DHT22;53228;51.380;0.098;2024-03-22T05:00:46;8.90;99.90
66422;DHT22;53228;51.380;0.098;2024-03-22T05:03:13;8.80;99.90
66422;DHT22;53228;51.380;0.098;2024-03-22T05:05:41;8.90;99.90
66422;DHT22;53228;51.380;0.098;2024-03-22T05:08:08;8.90;99.90
66422;DHT22;53228;51.380;0.098;2024-03-22T05:10:35;9.40;99.90
66422;DHT22;53228;51.380;0.098;2024-03-22T05:13:02;8.80;99.90
66422;DHT22;53228;51.380;0.098;2024-03-22T05:15:29;8.80;99.90
66422;DHT22;53228;51.380;0.098;2024-03-22T05:17:57;9.80;99.90
66422;DHT22;53228;51.380;0.098;2024-03-22T05:20:25;8.80;99.90
66422;DHT22;53228;51.380;0.098;2024-03-22T05:22:52;7.60;99.90
66422;DHT22;53228;51.380;0.098;2024-03-22T05:25:19;8.90;99.90
66422;DHT22;53228;51.380;0.098;2024-03-22T05:27:45;8.80;99.90
66422;DHT22;53228;51.380;0.098;2024-03-22T05:30:13;8.80;99.90
66422;DHT22;53228;51.380;0.098;2024-03-22T05:32:40;8.90;99.90
66422;DHT22;53228;51.380;0.098;2024-03-22T05:35:07;8.90;99.90
66422;DHT22;53228;51.380;0.098;2024-03-22T05:37:34;8.90;99.90
66422;DHT22;53228;51.380;0.098;2024-03-22T05:40:02;8.90;99.90
66422;DHT22;53228;51.380;0.098;2024-03-22T05:42:30;7.80;99.90
66422;DHT22;53228;51.380;0.098;2024-03-22T05:44:57;8.80;99.90
66422;DHT22;53228;51.380;0.098;2024-03-22T05:47:23;8.80;99.90
66422;DHT22;53228;51.380;0.098;2024-03-22T05:49:50;8.80;99.90
66422;DHT22;53228;51.380;0.098;2024-03-22T05:52:18;8.80;99.90
66422;DHT22;53228;51.380;0.098;2024-03-22T05:54:45;8.70;99.90
66422;DHT22;53228;51.380;0.098;2024-03-22T05:57:11;8.70;99.90
66422;DHT22;53228;51.380;0.098;2024-03-22T05:59:38;8.60;99.90
66422;DHT22;53228;51.380;0.098;2024-03-22T06:02:05;8.60;99.90
66422;DHT22;53228;51.380;0.098;2024-03-22T06:04:32;8.60;99.90
66422;DHT22;53228;51.380;0.098;2024-03-22T06:06:59;8.50;99.90
66422;DHT22;53228;51.380;0.098;2024-03-22T06:09:27;8.50;99.90
66422;DHT22;53228;51.380;0.098;2024-03-22T06:12:13;8.50;99.90
66422;DHT22;53228;51.380;0.098;2024-03-22T06:14:41;8.40;99.90
66422;DHT22;53228;51.380;0.098;2024-03-22T06:17:07;8.80;99.90
66422;DHT22;53228;51.380;0.098;2024-03-22T06:19:35;8.40;99.90
66422;DHT22;53228;51.380;0.098;2024-03-22T06:22:02;8.40;99.90
66422;DHT22;53228;51.380;0.098;2024-03-22T06:24:29;8.40;99.90
66422;DHT22;53228;51.380;0.098;2024-03-22T06:26:55;8.30;99.90
66422;DHT22;53228;51.380;0.098;2024-03-22T06:29:22;8.30;99.90
66422;DHT22;53228;51.380;0.098;2024-03-22T06:31:49;8.30;99.90
66422;DHT22;53228;51.380;0.098;2024-03-22T06:34:16;8.30;99.90
66422;DHT22;53228;51.380;0.098;2024-03-22T06:36:43;8.30;99.90
66422;DHT22;53228;51.380;0.098;2024-03-22T06:39:10;8.30;99.90
66422;DHT22;53228;51.380;0.098;2024-03-22T06:41:36;8.30;99.90
66422;DHT22;53228;51.380;0.098;2024-03-22T06:44:04;8.20;99.90
66422;DHT22;53228;51.380;0.098;2024-03-22T06:46:31;8.20;99.90
66422;DHT22;53228;51.380;0.098;2024-03-22T06:48:58;8.20;99.90
66422;DHT22;53228;51.380;0.098;2024-03-22T06:53:52;9.90;99.90
66422;DHT22;53228;51.380;0.098;2024-03-22T06:56:18;8.70;99.90
66422;DHT22;53228;51.380;0.098;2024-03-22T06:58:46;8.20;99.90
66422;DHT22;53228;51.380;0.098;2024-03-22T07:01:12;8.20;99.90
66422;DHT22;53228;51.380;0.098;2024-03-22T07:03:39;8.20;99.90
66422;DHT22;53228;51.380;0.098;2024-03-22T07:06:06;8.20;99.90
66422;DHT22;53228;51.380;0.098;2024-03-22T07:08:34;8.30;99.90
66422;DHT22;53228;51.380;0.098;2024-03-22T07:11:05;8.50;99.90
66422;DHT22;53228;51.380;0.098;2024-03-22T07:13:32;8.90;99.90
66422;DHT22;53228;51.380;0.098;2024-03-22T07:15:59;7.80;99.90
66422;DHT22;53228;51.380;0.098;2024-03-22T07:18:25;8.30;99.90
66422;DHT22;53228;51.380;0.098;2024-03-22T07:20:52;8.30;99.90
66422;DHT22;53228;51.380;0.098;2024-03-22T07:23:19;9.80;99.90
66422;DHT22;53228;51.380;0.098;2024-03-22T07:25:46;8.40;99.90
66422;DHT22;53228;51.380;0.098;2024-03-22T07:28:15;8.40;99.90
66422;DHT22;53228;51.380;0.098;2024-03-22T07:30:42;8.20;99.90
66422;DHT22;53228;51.380;0.098;2024-03-22T07:33:10;8.40;99.90
66422;DHT22;53228;51.380;0.098;2024-03-22T07:35:39;8.50;99.90
66422;DHT22;53228;51.380;0.098;2024-03-22T07:38:06;8.50;99.90
66422;DHT22;53228;51.380;0.098;2024-03-22T07:40:33;8.00;99.90
66422;DHT22;53228;51.380;0.098;2024-03-22T07:42:59;8.60;99.90
66422;DHT22;53228;51.380;0.098;2024-03-22T07:45:26;8.70;99.90
66422;DHT22;53228;51.380;0.098;2024-03-22T07:47:52;8.60;99.90
66422;DHT22;53228;51.380;0.098;2024-03-22T07:50:19;10.00;99.90
66422;DHT22;53228;51.380;0.098;2024-03-22T07:52:46;8.70;99.90
66422;DHT22;53228;51.380;0.098;2024-03-22T07:55:12;8.80;99.90
66422;DHT22;53228;51.380;0.098;2024-03-22T07:57:39;8.90;99.90
66422;DHT22;53228;51.380;0.098;2024-03-22T08:00:06;8.90;99.90
66422;DHT22;53228;51.380;0.098;2024-03-22T08:02:38;10.40;99.90
66422;DHT22;53228;51.380;0.098;2024-03-22T08:05:06;9.20;99.90
66422;DHT22;53228;51.380;0.098;2024-03-22T08:07:32;9.10;99.90
66422;DHT22;53228;51.380;0.098;2024-03-22T08:09:59;9.20;99.90
66422;DHT22;53228;51.380;0.098;2024-03-22T08:12:28;9.50;99.90
66422;DHT22;53228;51.380;0.098;2024-03-22T08:14:55;9.30;99.90
66422;DHT22;53228;51.380;0.098;2024-03-22T08:17:22;9.40;99.90
66422;DHT22;53228;51.380;0.098;2024-03-22T08:19:48;9.40;99.90
66422;DHT22;53228;51.380;0.098;2024-03-22T08:22:15;9.50;99.90
66422;DHT22;53228;51.380;0.098;2024-03-22T08:24:42;10.50;99.90
66422;DHT22;53228;51.380;0.098;2024-03-22T08:27:08;9.60;99.90
66422;DHT22;53228;51.380;0.098;2024-03-22T08:29:35;9.70;99.90
66422;DHT22;53228;51.380;0.098;2024-03-22T08:32:01;9.80;99.90
66422;DHT22;53228;51.380;0.098;2024-03-22T08:34:31;10.00;99.90
66422;DHT22;53228;51.380;0.098;2024-03-22T08:36:59;10.10;99.90
66422;DHT22;53228;51.380;0.098;2024-03-22T08:39:25;10.20;99.90
66422;DHT22;53228;51.380;0.098;2024-03-22T08:41:52;10.30;99.90
66422;DHT22;53228;51.380;0.098;2024-03-22T08:44:18;9.40;99.90
66422;DHT22;53228;51.380;0.098;2024-03-22T08:46:45;10.30;99.90
66422;DHT22;53228;51.380;0.098;2024-03-22T08:49:12;10.20;99.90
66422;DHT22;53228;51.380;0.098;2024-03-22T08:51:39;10.30;99.90
66422;DHT22;53228;51.380;0.098;2024-03-22T08:54:06;10.30;99.90
66422;DHT22;53228;51.380;0.098;2024-03-22T08:56:32;10.30;99.90
66422;DHT22;53228;51.380;0.098;2024-03-22T08:58:59;10.40;99.90
66422;DHT22;53228;51.380;0.098;2024-03-22T09:01:26;10.40;99.90
66422;DHT22;53228;51.380;0.098;2024-03-22T09:03:53;10.40;99.90
66422;DHT22;53228;51.380;0.098;2024-03-22T09:06:20;10.80;99.90
66422;DHT22;53228;51.380;0.098;2024-03-22T09:08:46;10.50;99.90
66422;DHT22;53228;51.380;0.098;2024-03-22T09:11:13;11.60;99.90
66422;DHT22;53228;51.380;0.098;2024-03-22T09:13:40;10.60;99.90
66422;DHT22;53228;51.380;0.098;2024-03-22T09:16:06;10.40;99.90
66422;DHT22;53228;51.380;0.098;2024-03-22T09:18:33;11.10;99.90
66422;DHT22;53228;51.380;0.098;2024-03-22T09:20:59;10.60;99.90
66422;DHT22;53228;51.380;0.098;2024-03-22T09:23:26;10.60;99.90
66422;DHT22;53228;51.380;0.098;2024-03-22T09:25:53;10.60;99.90
66422;DHT22;53228;51.380;0.098;2024-03-22T09:28:19;10.60;99.90
66422;DHT22;53228;51.380;0.098;2024-03-22T09:30:46;10.60;99.90
66422;DHT22;53228;51.380;0.098;2024-03-22T09:33:14;10.60;99.90
66422;DHT22;53228;51.380;0.098;2024-03-22T09:35:41;10.70;99.90
66422;DHT22;53228;51.380;0.098;2024-03-22T09:38:07;10.60;99.90
66422;DHT22;53228;51.380;0.098;2024-03-22T09:40:37;11.10;99.90
66422;DHT22;53228;51.380;0.098;2024-03-22T09:43:06;11.10;99.90
66422;DHT22;53228;51.380;0.098;2024-03-22T09:45:33;11.20;99.90
66422;DHT22;53228;51.380;0.098;2024-03-22T09:48:01;11.50;99.90
66422;DHT22;53228;51.380;0.098;2024-03-22T09:50:29;12.00;99.90
66422;DHT22;53228;51.380;0.098;2024-03-22T09:52:56;12.50;99.90
66422;DHT22;53228;51.380;0.098;2024-03-22T09:55:23;13.00;99.90
66422;DHT22;53228;51.380;0.098;2024-03-22T09:57:51;13.60;99.90
66422;DHT22;53228;51.380;0.098;2024-03-22T10:00:20;14.10;99.90
66422;DHT22;53228;51.380;0.098;2024-03-22T10:02:49;14.10;99.90
66422;DHT22;53228;51.380;0.098;2024-03-22T10:05:16;14.60;99.90
66422;DHT22;53228;51.380;0.098;2024-03-22T10:07:44;14.80;99.90
66422;DHT22;53228;51.380;0.098;2024-03-22T10:10:11;14.90;99.90
66422;DHT22;53228;51.380;0.098;2024-03-22T10:12:39;14.90;99.90
66422;DHT22;53228;51.380;0.098;2024-03-22T10:15:06;15.10;99.90
66422;DHT22;53228;51.380;0.098;2024-03-22T10:17:35;15.80;99.90
66422;DHT22;53228;51.380;0.098;2024-03-22T10:20:04;15.30;99.90
66422;DHT22;53228;51.380;0.098;2024-03-22T10:22:33;15.50;99.90
66422;DHT22;53228;51.380;0.098;2024-03-22T10:24:59;15.80;99.90
66422;DHT22;53228;51.380;0.098;2024-03-22T10:27:28;15.90;99.90
66422;DHT22;53228;51.380;0.098;2024-03-22T10:29:56;16.00;99.90
66422;DHT22;53228;51.380;0.098;2024-03-22T10:32:23;16.20;99.90
66422;DHT22;53228;51.380;0.098;2024-03-22T10:34:51;16.60;99.90
66422;DHT22;53228;51.380;0.098;2024-03-22T10:37:18;17.00;99.90
66422;DHT22;53228;51.380;0.098;2024-03-22T10:39:46;17.40;99.90
66422;DHT22;53228;51.380;0.098;2024-03-22T10:42:14;17.00;99.90
66422;DHT22;53228;51.380;0.098;2024-03-22T10:44:42;16.60;99.90
66422;DHT22;53228;51.380;0.098;2024-03-22T10:47:09;15.90;99.90
66422;DHT22;53228;51.380;0.098;2024-03-22T10:49:37;15.40;99.90
66422;DHT22;53228;51.380;0.098;2024-03-22T10:52:07;14.90;99.90
66422;DHT22;53228;51.380;0.098;2024-03-22T10:54:40;13.90;99.90
66422;DHT22;53228;51.380;0.098;2024-03-22T10:57:13;13.90;99.90
66422;DHT22;53228;51.380;0.098;2024-03-22T10:59:41;14.00;99.90
66422;DHT22;53228;51.380;0.098;2024-03-22T11:02:10;14.50;99.90
66422;DHT22;53228;51.380;0.098;2024-03-22T11:04:37;14.80;99.90
66422;DHT22;53228;51.380;0.098;2024-03-22T11:07:05;15.40;99.90
66422;DHT22;53228;51.380;0.098;2024-03-22T11:09:31;15.80;99.90
66422;DHT22;53228;51.380;0.098;2024-03-22T11:11:58;15.80;99.90
66422;DHT22;53228;51.380;0.098;2024-03-22T11:14:26;16.00;99.90
66422;DHT22;53228;51.380;0.098;2024-03-22T11:16:53;16.10;99.90
66422;DHT22;53228;51.380;0.098;2024-03-22T11:19:19;16.70;99.90
66422;DHT22;53228;51.380;0.098;2024-03-22T11:21:46;17.20;99.90
66422;DHT22;53228;51.380;0.098;2024-03-22T11:24:13;17.30;99.90
66422;DHT22;53228;51.380;0.098;2024-03-22T11:26:39;17.20;99.90
66422;DHT22;53228;51.380;0.098;2024-03-22T11:31:34;17.00;99.90
66422;DHT22;53228;51.380;0.098;2024-03-22T11:34:02;17.10;99.90
66422;DHT22;53228;51.380;0.098;2024-03-22T11:36:29;17.10;99.90
66422;DHT22;53228;51.380;0.098;2024-03-22T11:38:56;17.40;99.90
66422;DHT22;53228;51.380;0.098;2024-03-22T11:41:28;17.80;99.90
66422;DHT22;53228;51.380;0.098;2024-03-22T11:43:57;18.30;99.90
66422;DHT22;53228;51.380;0.098;2024-03-22T11:46:25;18.80;99.90
66422;DHT22;53228;51.380;0.098;2024-03-22T11:48:53;19.10;99.90
66422;DHT22;53228;51.380;0.098;2024-03-22T11:51:20;18.80;99.90
66422;DHT22;53228;51.380;0.098;2024-03-22T11:53:54;18.40;99.90
66422;DHT22;53228;51.380;0.098;2024-03-22T11:56:24;17.20;98.10
66422;DHT22;53228;51.380;0.098;2024-03-22T11:58:59;15.70;98.70
66422;DHT22;53228;51.380;0.098;2024-03-22T12:01:27;15.60;99.00
66422;DHT22;53228;51.380;0.098;2024-03-22T12:03:54;14.90;99.80
66422;DHT22;53228;51.380;0.098;2024-03-22T12:06:21;14.40;99.90
66422;DHT22;53228;51.380;0.098;2024-03-22T12:08:48;14.20;99.90
66422;DHT22;53228;51.380;0.098;2024-03-22T12:11:14;14.50;99.90
66422;DHT22;53228;51.380;0.098;2024-03-22T12:13:42;15.00;99.90
66422;DHT22;53228;51.380;0.098;2024-03-22T12:16:09;15.10;99.90
66422;DHT22;53228;51.380;0.098;2024-03-22T12:18:36;15.30;99.20
66422;DHT22;53228;51.380;0.098;2024-03-22T12:21:03;15.30;98.30
66422;DHT22;53228;51.380;0.098;2024-03-22T12:23:29;14.70;93.90
66422;DHT22;53228;51.380;0.098;2024-03-22T12:25:56;14.60;95.40
66422;DHT22;53228;51.380;0.098;2024-03-22T12:28:22;14.30;95.80
66422;DHT22;53228;51.380;0.098;2024-03-22T12:30:49;14.10;96.90
66422;DHT22;53228;51.380;0.098;2024-03-22T12:33:16;14.00;96.70
66422;DHT22;53228;51.380;0.098;2024-03-22T12:38:10;13.60;97.20
66422;DHT22;53228;51.380;0.098;2024-03-22T12:40:40;13.60;98.40
66422;DHT22;53228;51.380;0.098;2024-03-22T12:43:09;13.60;99.20
66422;DHT22;53228;51.380;0.098;2024-03-22T12:45:37;13.60;99.10
66422;DHT22;53228;51.380;0.098;2024-03-22T12:48:04;13.80;99.70
66422;DHT22;53228;51.380;0.098;2024-03-22T12:50:31;13.60;99.50
66422;DHT22;53228;51.380;0.098;2024-03-22T12:52:58;13.50;99.80
66422;DHT22;53228;51.380;0.098;2024-03-22T12:55:24;13.40;99.90
66422;DHT22;53228;51.380;0.098;2024-03-22T12:57:52;13.20;99.90
66422;DHT22;53228;51.380;0.098;2024-03-22T13:00:19;13.10;99.90
66422;DHT22;53228;51.380;0.098;2024-03-22T13:02:46;12.90;99.90
66422;DHT22;53228;51.380;0.098;2024-03-22T13:05:13;12.70;99.90
66422;DHT22;53228;51.380;0.098;2024-03-22T13:07:42;12.60;99.90
66422;DHT22;53228;51.380;0.098;2024-03-22T13:10:09;12.40;99.90
66422;DHT22;53228;51.380;0.098;2024-03-22T13:12:36;11.70;99.90
66422;DHT22;53228;51.380;0.098;2024-03-22T13:15:04;12.00;99.90
66422;DHT22;53228;51.380;0.098;2024-03-22T13:17:31;11.90;99.90
66422;DHT22;53228;51.380;0.098;2024-03-22T13:19:58;11.90;99.90
66422;DHT22;53228;51.380;0.098;2024-03-22T13:22:25;12.00;99.90
66422;DHT22;53228;51.380;0.098;2024-03-22T13:24:51;12.20;99.90
66422;DHT22;53228;51.380;0.098;2024-03-22T13:27:19;12.10;99.90
66422;DHT22;53228;51.380;0.098;2024-03-22T13:29:49;12.20;99.90
66422;DHT22;53228;51.380;0.098;2024-03-22T13:32:15;12.30;99.90
66422;DHT22;53228;51.380;0.098;2024-03-22T13:34:43;12.30;99.90
66422;DHT22;53228;51.380;0.098;2024-03-22T13:37:09;12.30;99.90
66422;DHT22;53228;51.380;0.098;2024-03-22T13:39:36;12.40;99.70
66422;DHT22;53228;51.380;0.098;2024-03-22T13:42:03;12.40;99.10
66422;DHT22;53228;51.380;0.098;2024-03-22T13:44:32;12.30;98.30
66422;DHT22;53228;51.380;0.098;2024-03-22T13:46:59;12.30;98.10
66422;DHT22;53228;51.380;0.098;2024-03-22T13:49:26;12.20;98.30
66422;DHT22;53228;51.380;0.098;2024-03-22T13:51:52;12.10;98.70
66422;DHT22;53228;51.380;0.098;2024-03-22T13:54:19;12.10;99.30
66422;DHT22;53228;51.380;0.098;2024-03-22T13:56:46;12.00;99.60
66422;DHT22;53228;51.380;0.098;2024-03-22T13:59:12;12.10;99.50
66422;DHT22;53228;51.380;0.098;2024-03-22T14:01:41;12.00;99.60
66422;DHT22;53228;51.380;0.098;2024-03-22T14:04:09;12.10;99.10
66422;DHT22;53228;51.380;0.098;2024-03-22T14:06:38;12.10;99.60
66422;DHT22;53228;51.380;0.098;2024-03-22T14:09:04;12.20;99.90
66422;DHT22;53228;51.380;0.098;2024-03-22T14:11:31;12.20;99.70
66422;DHT22;53228;51.380;0.098;2024-03-22T14:13:58;12.10;98.80
66422;DHT22;53228;51.380;0.098;2024-03-22T14:16:24;11.90;99.60
66422;DHT22;53228;51.380;0.098;2024-03-22T14:18:51;11.90;99.60
66422;DHT22;53228;51.380;0.098;2024-03-22T14:21:19;11.80;99.40
66422;DHT22;53228;51.380;0.098;2024-03-22T14:23:49;11.70;99.80
66422;DHT22;53228;51.380;0.098;2024-03-22T14:26:17;11.70;99.90
66422;DHT22;53228;51.380;0.098;2024-03-22T14:28:44;11.70;99.90
66422;DHT22;53228;51.380;0.098;2024-03-22T14:31:11;11.80;99.90
66422;DHT22;53228;51.380;0.098;2024-03-22T14:33:38;11.80;99.90
66422;DHT22;53228;51.380;0.098;2024-03-22T14:36:06;11.80;99.30
66422;DHT22;53228;51.380;0.098;2024-03-22T14:38:33;11.90;99.50
66422;DHT22;53228;51.380;0.098;2024-03-22T14:41:00;11.90;98.90
66422;DHT22;53228;51.380;0.098;2024-03-22T14:43:27;11.90;96.80
66422;DHT22;53228;51.380;0.098;2024-03-22T14:45:54;11.80;96.60
66422;DHT22;53228;51.380;0.098;2024-03-22T14:48:22;10.90;97.20
66422;DHT22;53228;51.380;0.098;2024-03-22T14:50:50;11.60;97.10
66422;DHT22;53228;51.380;0.098;2024-03-22T14:53:17;11.60;97.10
66422;DHT22;53228;51.380;0.098;2024-03-22T14:55:57;11.60;97.30
66422;DHT22;53228;51.380;0.098;2024-03-22T14:58:25;11.60;97.30
66422;DHT22;53228;51.380;0.098;2024-03-22T15:00:57;11.50;96.80
66422;DHT22;53228;51.380;0.098;2024-03-22T15:03:24;11.50;97.40
66422;DHT22;53228;51.380;0.098;2024-03-22T15:05:51;11.50;98.00
66422;DHT22;53228;51.380;0.098;2024-03-22T15:08:20;11.50;97.70
66422;DHT22;53228;51.380;0.098;2024-03-22T15:10:47;11.60;98.50
66422;DHT22;53228;51.380;0.098;2024-03-22T15:13:15;11.60;99.10
66422;DHT22;53228;51.380;0.098;2024-03-22T15:15:43;11.60;99.40
66422;DHT22;53228;51.380;0.098;2024-03-22T15:18:10;11.70;99.70
66422;DHT22;53228;51.380;0.098;2024-03-22T15:20:37;11.70;99.90
66422;DHT22;53228;51.380;0.098;2024-03-22T15:23:04;11.80;99.90
66422;DHT22;53228;51.380;0.098;2024-03-22T15:25:31;11.80;99.90
66422;DHT22;53228;51.380;0.098;2024-03-22T15:27:57;11.60;99.90
66422;DHT22;53228;51.380;0.098;2024-03-22T15:30:24;11.50;99.90
66422;DHT22;53228;51.380;0.098;2024-03-22T15:32:50;11.30;99.90
66422;DHT22;53228;51.380;0.098;2024-03-22T15:35:19;11.20;99.90
66422;DHT22;53228;51.380;0.098;2024-03-22T15:37:46;11.10;99.90
66422;DHT22;53228;51.380;0.098;2024-03-22T15:40:13;11.00;99.90
66422;DHT22;53228;51.380;0.098;2024-03-22T15:42:42;11.00;99.90
66422;DHT22;53228;51.380;0.098;2024-03-22T15:45:08;11.30;99.90